ESSP

Norrköping Airport

Norrköping, Sweden
METAR ESSP 250020Z AUTO 26013KT 9999 OVC017/// 08/05 Q0998
Observed Flight Rules
Apr-25 @ 00:20 UTC (13 minutes ago) Marginal Visual Flight Rules
Wind Visibility Clouds
260° at 13 knots 10,000+ meters
  • Overcast at 1,700' AGL
Temperatures Readings
Current 8°C / 46°F
Dewpoint 5°C / 41°F
Humidity 82%
Altimeter 29.47" Hg
Pressure 998 hPa
Elevation 8
METAR ESSP 250020Z AUTO 26013KT 9999 OVC017/// 08/05 Q0998
Observed Flight Rules
Apr-25 @ 00:20 UTC
(13 minutes ago)
MVFR
Wind Visibility
260° at 13 knots 10,000+ meters
Clouds
  • Overcast at 1,700' AGL
Temperature Dewpoint
8°C / 46°F 5°C / 41°F
Humidity Altimeter Pressure
82% 29.47" Hg 998 hPa